createdAt,value
2019-03-21T00:02:17.392Z,15.73
2019-03-21T00:04:47.047Z,16.13
2019-03-21T00:07:15.244Z,17.93
2019-03-21T00:09:47.985Z,16.67
2019-03-21T00:12:16.212Z,16.63
2019-03-21T00:14:46.004Z,17.33
2019-03-21T00:17:32.176Z,18.37
2019-03-21T00:20:00.461Z,16.57
2019-03-21T00:22:28.761Z,17.23
2019-03-21T00:24:56.972Z,16.60
2019-03-21T00:27:26.211Z,17.97
2019-03-21T00:29:54.449Z,16.37
2019-03-21T00:32:22.664Z,16.10
2019-03-21T00:34:50.869Z,17.50
2019-03-21T00:37:19.071Z,16.60
2019-03-21T00:39:47.263Z,15.30
2019-03-21T00:42:15.456Z,18.07
2019-03-21T00:44:43.693Z,17.00
2019-03-21T00:47:12.780Z,15.93
2019-03-21T00:49:40.967Z,17.87
2019-03-21T00:52:12.082Z,16.67
2019-03-21T00:54:40.264Z,16.90
2019-03-21T00:57:08.498Z,17.30
2019-03-21T00:59:36.680Z,16.07
2019-03-21T01:02:04.909Z,17.03
2019-03-21T01:04:34.872Z,17.07
2019-03-21T01:07:03.127Z,18.40
2019-03-21T01:09:31.361Z,19.27
2019-03-21T01:11:59.560Z,19.87
2019-03-21T01:14:30.085Z,16.93
2019-03-21T01:16:57.681Z,18.37
2019-03-21T01:19:25.893Z,17.03
2019-03-21T01:21:54.122Z,19.67
2019-03-21T01:24:22.332Z,19.20
2019-03-21T01:26:50.654Z,19.93
2019-03-21T01:29:18.836Z,19.90
2019-03-21T01:31:47.068Z,20.10
2019-03-21T01:34:15.289Z,19.70
2019-03-21T01:36:43.471Z,18.17
2019-03-21T01:39:11.715Z,19.23
2019-03-21T01:41:39.907Z,21.27
2019-03-21T01:44:08.125Z,20.33
2019-03-21T01:46:36.432Z,20.93
2019-03-21T01:49:05.537Z,19.27
2019-03-21T01:51:34.658Z,21.53
2019-03-21T01:54:02.868Z,19.90
2019-03-21T01:56:31.256Z,20.90
2019-03-21T01:58:59.444Z,21.20
2019-03-21T02:01:27.651Z,21.03
2019-03-21T02:03:55.893Z,21.43
2019-03-21T02:06:24.115Z,20.00
2019-03-21T02:08:52.397Z,20.90
2019-03-21T02:11:20.579Z,20.80
2019-03-21T02:13:48.822Z,21.20
2019-03-21T02:16:17.088Z,20.33
2019-03-21T02:18:45.349Z,21.80
2019-03-21T02:21:13.587Z,21.70
2019-03-21T02:23:41.813Z,21.80
2019-03-21T02:26:10.122Z,22.00
2019-03-21T02:28:38.333Z,21.77
2019-03-21T02:31:06.558Z,22.10
2019-03-21T02:33:36.731Z,21.73
2019-03-21T02:36:09.382Z,23.00
2019-03-21T02:38:37.602Z,22.80
2019-03-21T02:41:10.552Z,22.57
2019-03-21T02:43:39.021Z,23.13
2019-03-21T02:46:07.239Z,23.07
2019-03-21T02:48:35.510Z,23.50
2019-03-21T02:51:04.170Z,22.03
2019-03-21T02:53:32.354Z,23.80
2019-03-21T02:56:00.636Z,23.63
2019-03-21T02:58:28.872Z,23.13
2019-03-21T03:00:57.052Z,22.03
2019-03-21T03:03:25.254Z,23.47
2019-03-21T03:05:53.437Z,23.80
2019-03-21T03:08:21.666Z,25.43
2019-03-21T03:10:51.354Z,22.80
2019-03-21T03:13:20.463Z,23.37
2019-03-21T03:15:48.660Z,24.77
2019-03-21T03:18:17.675Z,24.57
2019-03-21T03:20:45.888Z,24.00
2019-03-21T03:23:15.004Z,23.77
2019-03-21T03:25:43.305Z,24.70
2019-03-21T03:28:21.840Z,23.50
2019-03-21T03:30:51.189Z,23.60
2019-03-21T03:33:19.456Z,24.03
2019-03-21T03:35:48.556Z,23.60
2019-03-21T03:38:17.630Z,23.17
2019-03-21T03:40:53.363Z,25.27
2019-03-21T03:43:21.620Z,23.50
2019-03-21T03:45:49.812Z,21.00
2019-03-21T03:48:19.921Z,22.43
2019-03-21T03:50:47.950Z,22.77
2019-03-21T03:53:16.175Z,23.13
2019-03-21T03:55:44.389Z,22.23
2019-03-21T03:58:16.905Z,21.57
2019-03-21T04:00:45.170Z,20.50
2019-03-21T04:03:13.415Z,21.37
2019-03-21T04:05:41.698Z,23.43
2019-03-21T04:08:10.769Z,21.50
2019-03-21T04:10:43.689Z,21.70
2019-03-21T04:13:11.984Z,22.27
2019-03-21T04:15:51.805Z,21.17
2019-03-21T04:18:10.154Z,22.40
2019-03-21T04:20:39.917Z,21.40
2019-03-21T04:23:08.180Z,20.30
2019-03-21T04:25:43.619Z,21.53
2019-03-21T04:28:15.777Z,21.60
2019-03-21T04:30:44.732Z,22.20
2019-03-21T04:33:13.921Z,22.10
2019-03-21T04:35:42.319Z,21.30
2019-03-21T04:38:10.613Z,21.57
2019-03-21T04:40:38.841Z,21.30
2019-03-21T04:43:07.053Z,20.60
2019-03-21T04:45:35.242Z,21.80
2019-03-21T04:48:03.440Z,21.30
2019-03-21T04:50:32.027Z,20.10
2019-03-21T04:53:00.268Z,21.00
2019-03-21T04:55:28.486Z,21.30
2019-03-21T04:57:56.694Z,20.80
2019-03-21T05:00:31.989Z,22.00
2019-03-21T05:03:01.390Z,22.07
2019-03-21T05:05:29.646Z,21.80
2019-03-21T05:07:57.866Z,21.50
2019-03-21T05:10:26.089Z,22.23
2019-03-21T05:12:54.268Z,22.43
2019-03-21T05:15:32.949Z,22.70
2019-03-21T05:18:02.546Z,22.40
2019-03-21T05:20:30.807Z,20.93
2019-03-21T05:22:59.265Z,22.43
2019-03-21T05:25:27.493Z,22.50
2019-03-21T05:27:55.672Z,20.63
2019-03-21T05:30:34.222Z,20.80
2019-03-21T05:33:02.409Z,20.97
2019-03-21T05:35:30.630Z,20.37
2019-03-21T05:37:58.825Z,21.80
2019-03-21T05:40:27.070Z,21.07
2019-03-21T05:43:03.061Z,21.57
2019-03-21T05:45:31.247Z,21.73
2019-03-21T05:47:59.469Z,22.53
2019-03-21T05:50:27.694Z,21.57
2019-03-21T05:52:55.904Z,22.00
2019-03-21T05:55:26.634Z,22.17
2019-03-21T05:57:54.026Z,22.47
2019-03-21T06:00:29.833Z,22.80
2019-03-21T06:02:58.140Z,22.67
2019-03-21T06:05:27.254Z,22.27
2019-03-21T06:08:03.704Z,23.63
2019-03-21T06:10:31.942Z,23.77
2019-03-21T06:13:00.167Z,20.80
2019-03-21T06:15:30.014Z,21.70
2019-03-21T06:18:18.024Z,22.87
2019-03-21T06:20:50.330Z,23.30
2019-03-21T06:23:36.476Z,24.00
2019-03-21T06:26:15.177Z,22.63
2019-03-21T06:28:43.397Z,21.50
2019-03-21T06:31:11.613Z,22.93
2019-03-21T06:33:39.814Z,22.00
2019-03-21T06:36:08.036Z,22.37
2019-03-21T06:38:36.235Z,22.83
2019-03-21T06:41:04.420Z,21.93
2019-03-21T06:43:32.678Z,22.30
2019-03-21T06:46:00.890Z,22.80
2019-03-21T06:48:29.117Z,21.60
2019-03-21T06:50:57.316Z,21.90
2019-03-21T06:53:25.507Z,22.13
2019-03-21T06:55:53.742Z,22.23
2019-03-21T06:58:21.923Z,22.23
2019-03-21T07:00:50.137Z,23.47
2019-03-21T07:03:18.535Z,22.60
2019-03-21T07:05:46.748Z,20.47
2019-03-21T07:08:14.935Z,21.87
2019-03-21T07:10:43.124Z,22.50
2019-03-21T07:13:11.342Z,22.10
2019-03-21T07:15:39.633Z,21.67
2019-03-21T07:18:07.828Z,21.67
2019-03-21T07:20:36.029Z,20.27
2019-03-21T07:23:04.228Z,21.93
2019-03-21T07:25:32.421Z,20.90
2019-03-21T07:28:00.640Z,20.83
2019-03-21T07:30:28.865Z,19.83
2019-03-21T07:32:57.050Z,19.83
2019-03-21T07:35:25.277Z,18.77
2019-03-21T07:37:55.108Z,18.60
2019-03-21T07:40:23.304Z,20.47
2019-03-21T07:42:51.533Z,19.00
2019-03-21T07:45:19.828Z,21.13
2019-03-21T07:47:48.036Z,20.30
2019-03-21T07:50:16.248Z,22.10
2019-03-21T07:52:46.038Z,23.00
2019-03-21T07:55:14.309Z,22.47
2019-03-21T07:57:42.516Z,20.87
2019-03-21T08:00:14.697Z,21.90
2019-03-21T08:02:42.922Z,21.60
2019-03-21T08:05:11.221Z,22.57
2019-03-21T08:07:39.413Z,22.40
2019-03-21T08:10:09.005Z,21.27
2019-03-21T08:12:37.217Z,21.97
2019-03-21T08:15:06.610Z,21.17
2019-03-21T08:17:34.795Z,22.97
2019-03-21T08:20:04.260Z,22.20
2019-03-21T08:22:32.445Z,22.37
2019-03-21T08:25:00.650Z,23.33
2019-03-21T08:27:28.856Z,22.53
2019-03-21T08:29:57.067Z,22.87
2019-03-21T08:32:25.280Z,23.93
2019-03-21T08:34:53.504Z,23.70
2019-03-21T08:37:21.728Z,25.07
2019-03-21T08:39:49.907Z,23.73
2019-03-21T08:42:19.006Z,23.60
2019-03-21T08:44:47.221Z,23.60
2019-03-21T08:47:15.424Z,22.43
2019-03-21T08:49:43.649Z,22.73
2019-03-21T08:52:12.781Z,20.03
2019-03-21T08:54:41.003Z,21.57
2019-03-21T08:57:09.218Z,19.77
2019-03-21T08:59:37.477Z,20.30
2019-03-21T09:02:05.672Z,20.20
2019-03-21T09:04:33.858Z,19.20
2019-03-21T09:07:02.082Z,19.00
2019-03-21T09:09:30.300Z,20.47
2019-03-21T09:11:58.516Z,20.37
2019-03-21T09:14:26.736Z,20.97
2019-03-21T09:16:55.011Z,20.30
2019-03-21T09:19:23.305Z,19.23
2019-03-21T09:21:52.943Z,19.00
2019-03-21T09:24:21.201Z,18.63
2019-03-21T09:26:49.400Z,17.13
2019-03-21T09:29:17.760Z,18.27
2019-03-21T09:31:45.990Z,18.20
2019-03-21T09:34:14.293Z,17.97
2019-03-21T09:36:42.553Z,15.73
2019-03-21T09:39:10.737Z,17.57
2019-03-21T09:41:38.950Z,16.73
2019-03-21T09:44:07.160Z,13.57
2019-03-21T09:46:35.385Z,15.50
2019-03-21T09:49:03.564Z,13.37
2019-03-21T09:51:31.804Z,14.07
2019-03-21T09:54:09.295Z,14.07
2019-03-21T09:56:30.001Z,12.50
2019-03-21T09:58:59.176Z,12.60
2019-03-21T10:01:27.375Z,14.07
2019-03-21T10:03:55.571Z,14.93
2019-03-21T10:06:23.766Z,12.13
2019-03-21T10:08:52.021Z,14.03
2019-03-21T10:11:20.242Z,14.07
2019-03-21T10:13:49.374Z,13.65
2019-03-21T10:16:17.615Z,12.83
2019-03-21T10:18:46.701Z,13.63
2019-03-21T10:21:15.839Z,13.33
2019-03-21T10:23:44.059Z,12.70
2019-03-21T10:26:12.300Z,12.80
2019-03-21T10:28:41.470Z,15.03
2019-03-21T10:31:09.735Z,13.40
2019-03-21T10:33:37.940Z,13.70
2019-03-21T10:36:06.165Z,14.60
2019-03-21T10:38:34.397Z,14.50
2019-03-21T10:41:02.610Z,14.77
2019-03-21T10:43:30.799Z,14.30
2019-03-21T10:45:59.946Z,12.77
2019-03-21T10:48:28.193Z,13.47
2019-03-21T10:50:56.408Z,12.50
2019-03-21T10:53:24.640Z,13.00
2019-03-21T10:55:52.881Z,13.17
2019-03-21T10:58:21.109Z,12.47
2019-03-21T11:00:50.112Z,12.67
2019-03-21T11:03:18.299Z,12.63
2019-03-21T11:05:46.489Z,12.93
2019-03-21T11:08:14.721Z,11.75
2019-03-21T11:10:42.949Z,12.80
2019-03-21T11:13:11.201Z,12.63
2019-03-21T11:15:39.414Z,10.90
2019-03-21T11:18:07.658Z,12.00
2019-03-21T11:20:39.144Z,11.83
2019-03-21T11:23:07.531Z,12.70
2019-03-21T11:25:35.758Z,11.65
2019-03-21T11:28:04.139Z,11.05
2019-03-21T11:30:33.395Z,12.60
2019-03-21T11:33:01.697Z,12.10
2019-03-21T11:35:30.052Z,11.37
2019-03-21T11:37:58.236Z,11.83
2019-03-21T11:40:26.446Z,11.50
2019-03-21T11:42:54.636Z,11.60
2019-03-21T11:45:22.850Z,12.75
2019-03-21T11:47:51.076Z,12.77
2019-03-21T11:50:19.340Z,12.90
2019-03-21T11:52:47.556Z,12.73
2019-03-21T11:55:15.736Z,12.03
2019-03-21T11:57:43.952Z,13.60
2019-03-21T12:00:13.876Z,13.30
2019-03-21T12:02:42.082Z,14.20
2019-03-21T12:05:10.460Z,12.57
2019-03-21T12:07:38.714Z,11.40
2019-03-21T12:10:08.000Z,11.80
2019-03-21T12:12:36.297Z,12.53
2019-03-21T12:15:07.592Z,13.27
2019-03-21T12:17:35.865Z,12.90
2019-03-21T12:20:05.742Z,15.65
2019-03-21T12:22:33.933Z,13.95
2019-03-21T12:25:02.199Z,14.00
2019-03-21T12:27:30.389Z,14.47
2019-03-21T12:29:59.517Z,14.07
2019-03-21T12:32:27.718Z,14.73
2019-03-21T12:34:55.904Z,13.90
2019-03-21T12:37:24.293Z,14.80
2019-03-21T12:39:52.540Z,15.53
2019-03-21T12:44:49.526Z,14.83
2019-03-21T12:47:17.893Z,14.93
2019-03-21T12:49:46.130Z,15.43
2019-03-21T12:52:14.322Z,15.40
2019-03-21T12:54:42.601Z,14.90
2019-03-21T12:57:10.794Z,15.67
2019-03-21T12:59:39.010Z,14.93
2019-03-21T13:02:08.117Z,15.10
2019-03-21T13:04:36.315Z,14.83
2019-03-21T13:07:04.540Z,15.80
2019-03-21T13:09:32.814Z,15.90
2019-03-21T13:12:01.061Z,15.27
2019-03-21T13:14:29.260Z,15.60
2019-03-21T13:16:57.492Z,15.87
2019-03-21T13:19:25.793Z,17.20
2019-03-21T13:21:53.992Z,15.40
2019-03-21T13:24:22.171Z,15.30
2019-03-21T13:26:51.281Z,18.35
2019-03-21T13:29:19.500Z,17.25
2019-03-21T13:31:47.717Z,17.40
2019-03-21T13:34:15.992Z,17.60
2019-03-21T13:36:44.217Z,17.35
2019-03-21T13:39:12.413Z,17.45
2019-03-21T13:41:40.609Z,17.15
2019-03-21T13:44:08.852Z,17.75
2019-03-21T13:46:37.035Z,17.45
2019-03-21T13:49:06.139Z,17.83
2019-03-21T13:51:34.620Z,17.57
2019-03-21T13:54:02.845Z,18.20
2019-03-21T13:56:38.080Z,20.60
2019-03-21T13:59:00.972Z,19.50
2019-03-21T14:01:29.213Z,18.53
2019-03-21T14:03:57.417Z,18.30
2019-03-21T14:06:25.638Z,18.55
2019-03-21T14:08:53.881Z,19.60
2019-03-21T14:11:22.097Z,18.75
2019-03-21T14:13:50.290Z,18.27
2019-03-21T14:16:18.508Z,19.23
2019-03-21T14:18:46.700Z,18.70
2019-03-21T14:21:14.884Z,18.43
2019-03-21T14:23:44.026Z,18.80
2019-03-21T14:26:12.208Z,18.87
2019-03-21T14:28:40.453Z,19.43
2019-03-21T14:31:08.669Z,19.87
2019-03-21T14:33:36.848Z,18.37
2019-03-21T14:36:05.076Z,19.07
2019-03-21T14:38:33.293Z,20.40
2019-03-21T14:41:01.521Z,20.23
2019-03-21T14:43:29.738Z,21.53
2019-03-21T14:45:57.936Z,20.20
2019-03-21T14:48:26.146Z,21.00
2019-03-21T14:50:54.407Z,21.27
2019-03-21T14:53:28.687Z,21.40
2019-03-21T14:55:52.543Z,20.60
2019-03-21T14:58:20.898Z,22.30
2019-03-21T15:00:49.178Z,19.80
2019-03-21T15:03:17.389Z,21.97
2019-03-21T15:05:45.617Z,20.77
2019-03-21T15:08:13.821Z,21.33
2019-03-21T15:10:42.034Z,19.83
2019-03-21T15:13:10.220Z,20.20
2019-03-21T15:15:39.324Z,21.13
2019-03-21T15:18:07.511Z,20.43
2019-03-21T15:20:35.742Z,21.03
2019-03-21T15:23:03.963Z,21.57
2019-03-21T15:25:32.207Z,20.97
2019-03-21T15:28:01.523Z,22.27
2019-03-21T15:30:29.741Z,21.50
2019-03-21T15:32:57.957Z,22.03
2019-03-21T15:35:26.216Z,21.33
2019-03-21T15:37:54.506Z,21.77
2019-03-21T15:40:22.688Z,21.30
2019-03-21T15:42:50.885Z,22.27
2019-03-21T15:45:23.833Z,21.57
2019-03-21T15:47:49.033Z,21.40
2019-03-21T15:50:21.889Z,23.07
2019-03-21T15:52:51.081Z,21.67
2019-03-21T15:55:19.260Z,21.13
2019-03-21T15:57:47.472Z,21.10
2019-03-21T16:00:17.197Z,21.97
2019-03-21T16:02:45.399Z,20.00
2019-03-21T16:05:13.584Z,22.03
2019-03-21T16:07:41.781Z,22.07
2019-03-21T16:10:09.970Z,22.50
2019-03-21T16:12:38.168Z,22.83
2019-03-21T16:15:07.265Z,21.57
2019-03-21T16:17:35.509Z,21.33
2019-03-21T16:20:05.289Z,22.00
2019-03-21T16:22:33.491Z,22.67
2019-03-21T16:25:01.780Z,20.33
2019-03-21T16:27:30.073Z,22.57
2019-03-21T16:29:58.333Z,20.77
2019-03-21T16:32:26.516Z,21.53
2019-03-21T16:34:54.737Z,22.90
2019-03-21T16:37:23.029Z,21.93
2019-03-21T16:39:51.234Z,21.00
2019-03-21T16:42:19.421Z,23.00
2019-03-21T16:44:47.609Z,23.20
2019-03-21T16:47:15.803Z,21.60
2019-03-21T16:49:44.024Z,22.00
2019-03-21T16:52:12.252Z,24.43
2019-03-21T16:54:40.533Z,23.07
2019-03-21T16:57:08.754Z,22.93
2019-03-21T16:59:36.954Z,22.47
2019-03-21T17:02:05.223Z,22.27
2019-03-21T17:04:33.435Z,21.70
2019-03-21T17:07:01.692Z,22.70
2019-03-21T17:09:29.922Z,21.80
2019-03-21T17:11:58.108Z,21.73
2019-03-21T17:14:26.339Z,22.80
2019-03-21T17:16:54.635Z,22.60
2019-03-21T17:19:22.868Z,22.50
2019-03-21T17:21:51.121Z,22.80
2019-03-21T17:24:28.690Z,22.97
2019-03-21T17:26:49.393Z,21.87
2019-03-21T17:29:17.572Z,22.30
2019-03-21T17:31:45.769Z,22.43
2019-03-21T17:34:13.981Z,22.47
2019-03-21T17:36:42.168Z,23.80
2019-03-21T17:39:10.420Z,24.00
2019-03-21T17:41:39.532Z,24.13
2019-03-21T17:44:07.749Z,22.40
2019-03-21T17:46:36.027Z,25.23
2019-03-21T17:49:04.582Z,24.60
2019-03-21T17:51:32.812Z,24.57
2019-03-21T17:54:01.036Z,24.90
2019-03-21T17:56:29.351Z,24.27
2019-03-21T17:58:57.604Z,26.53
2019-03-21T18:01:25.818Z,26.90
2019-03-21T18:03:54.000Z,26.40
2019-03-21T18:06:22.188Z,25.77
2019-03-21T18:08:50.441Z,24.20
2019-03-21T18:11:18.707Z,24.90
2019-03-21T18:13:46.934Z,28.40
2019-03-21T18:16:15.149Z,26.77
2019-03-21T18:18:44.658Z,26.53
2019-03-21T18:21:12.896Z,27.37
2019-03-21T18:23:41.121Z,26.30
2019-03-21T18:26:09.312Z,27.03
2019-03-21T18:28:37.522Z,25.77
2019-03-21T18:31:05.751Z,28.17
2019-03-21T18:33:34.072Z,30.00
2019-03-21T18:36:02.242Z,35.83
2019-03-21T18:38:30.444Z,31.50
2019-03-21T18:40:58.636Z,36.13
2019-03-21T18:43:26.858Z,31.63
2019-03-21T18:45:55.085Z,29.17
2019-03-21T18:48:23.298Z,28.40
2019-03-21T18:50:51.527Z,29.90
2019-03-21T18:53:19.749Z,30.20
2019-03-21T18:55:47.973Z,31.60
2019-03-21T18:58:16.164Z,32.60
2019-03-21T19:00:44.347Z,32.67
2019-03-21T19:03:12.547Z,34.40
2019-03-21T19:05:40.739Z,32.93
2019-03-21T19:08:08.992Z,28.80
2019-03-21T19:10:38.088Z,32.30
2019-03-21T19:13:06.317Z,32.10
2019-03-21T19:15:34.528Z,30.40
2019-03-21T19:18:02.724Z,32.00
2019-03-21T19:20:30.934Z,32.80
2019-03-21T19:22:59.137Z,30.13
2019-03-21T19:25:27.373Z,30.50
2019-03-21T19:27:55.560Z,32.20
2019-03-21T19:30:23.772Z,32.07
2019-03-21T19:32:52.049Z,32.50
2019-03-21T19:35:20.265Z,32.10
2019-03-21T19:42:43.181Z,32.10
2019-03-21T19:47:38.733Z,39.00
2019-03-21T19:52:34.291Z,37.80
2019-03-21T19:55:02.539Z,35.80
2019-03-21T20:04:52.762Z,44.10
2019-03-21T20:09:48.323Z,42.30
2019-03-21T20:12:16.594Z,46.90
2019-03-21T20:17:12.187Z,40.80
2019-03-21T20:19:40.448Z,35.30
2019-03-21T20:22:08.649Z,39.27
2019-03-21T20:24:36.835Z,41.55
2019-03-21T20:27:05.097Z,37.23
2019-03-21T20:34:28.128Z,40.40
2019-03-21T20:36:56.332Z,39.10
2019-03-21T20:39:24.571Z,38.60
2019-03-21T20:41:52.752Z,41.03
2019-03-21T20:44:20.954Z,39.00
2019-03-21T20:46:49.182Z,36.73
2019-03-21T20:49:17.364Z,37.17
2019-03-21T20:51:46.282Z,38.10
2019-03-21T20:54:14.480Z,39.10
2019-03-21T20:56:42.735Z,38.97
2019-03-21T20:59:11.882Z,37.30
2019-03-21T21:01:40.097Z,36.57
2019-03-21T21:04:08.385Z,37.63
2019-03-21T21:06:36.601Z,37.77
2019-03-21T21:09:05.980Z,36.70
2019-03-21T21:11:35.188Z,37.67
2019-03-21T21:14:03.638Z,37.17
2019-03-21T21:16:31.829Z,37.47
2019-03-21T21:19:00.045Z,37.00
2019-03-21T21:21:28.256Z,36.17
2019-03-21T21:23:56.481Z,36.50
2019-03-21T21:26:24.672Z,37.70
2019-03-21T21:28:52.864Z,38.40
2019-03-21T21:31:21.093Z,37.73
2019-03-21T21:33:49.369Z,37.73
2019-03-21T21:36:21.934Z,38.40
2019-03-21T21:38:47.451Z,36.07
2019-03-21T21:41:15.670Z,37.40
2019-03-21T21:43:43.879Z,39.20
2019-03-21T21:46:12.092Z,38.07
2019-03-21T21:48:40.315Z,38.33
2019-03-21T21:51:08.507Z,39.00
2019-03-21T21:53:36.705Z,39.20
2019-03-21T21:56:04.903Z,40.33
2019-03-21T21:58:33.123Z,39.37
2019-03-21T22:01:01.346Z,39.40
2019-03-21T22:03:29.677Z,39.00
2019-03-21T22:05:57.929Z,39.80
2019-03-21T22:08:26.116Z,38.40
2019-03-21T22:10:54.329Z,39.17
2019-03-21T22:13:22.557Z,40.27
2019-03-21T22:15:50.785Z,39.10
2019-03-21T22:18:18.972Z,39.60
2019-03-21T22:20:47.737Z,38.50
2019-03-21T22:23:15.960Z,37.67
2019-03-21T22:25:44.181Z,38.13
2019-03-21T22:28:12.368Z,39.33
2019-03-21T22:30:40.587Z,36.87
2019-03-21T22:33:08.791Z,38.50
2019-03-21T22:35:37.013Z,39.87
2019-03-21T22:38:05.234Z,41.33
2019-03-21T22:40:33.453Z,38.57
2019-03-21T22:43:01.755Z,38.00
2019-03-21T22:45:29.977Z,36.30
2019-03-21T22:47:58.157Z,39.00
2019-03-21T22:50:26.344Z,40.60
2019-03-21T22:52:54.544Z,41.00
2019-03-21T22:55:22.740Z,41.63
2019-03-21T22:57:50.937Z,40.30
2019-03-21T23:00:20.326Z,40.07
2019-03-21T23:02:48.514Z,37.07
2019-03-21T23:05:16.905Z,39.20
2019-03-21T23:07:45.096Z,38.40
2019-03-21T23:10:13.456Z,38.70
2019-03-21T23:12:41.941Z,37.10
2019-03-21T23:15:11.327Z,37.43
2019-03-21T23:17:39.545Z,37.90
2019-03-21T23:20:11.590Z,38.50
2019-03-21T23:22:39.808Z,38.83
2019-03-21T23:25:08.607Z,37.70
2019-03-21T23:27:36.796Z,35.57
2019-03-21T23:30:06.171Z,36.97
2019-03-21T23:32:34.422Z,37.17
2019-03-21T23:35:02.640Z,36.70
2019-03-21T23:37:30.818Z,37.03
2019-03-21T23:39:59.005Z,37.47
2019-03-21T23:42:27.205Z,38.20
2019-03-21T23:44:56.356Z,40.63
2019-03-21T23:47:24.557Z,40.57
2019-03-21T23:49:52.743Z,40.63
2019-03-21T23:52:20.990Z,39.00
2019-03-21T23:54:49.175Z,39.43
2019-03-21T23:57:17.372Z,38.37
2019-03-21T23:59:45.614Z,39.50
